GBR weather

Walter J. Koladza Airport
Great Barrington, Massachusetts, United States

Public forecast

Using degrees Fahrenheit for public forecast. Weather courtesy of forecast.io.

Closest aviation weather report (METAR) to Walter J. Koladza Airport

Closest report is Pittsfield Municipal Airport, 15.4 nm (28.5 km) NNE. Retrieved 2019/10/15 04:54 UTC (18 minutes ago):

KPSF 150454Z AUTO 29006KT 10SM CLR 07/01 A3005 RMK AO2 SLP164 T00720011 401940022

Closest aviation forecast (TAF) to Walter J. Koladza Airport

Closest forecast is Grass Land Air Field, 10.1 nm (18.8 km) SSE. Retrieved UTC (0 seconds ago):